sensor_id;sensor_type;location;lat;lon;timestamp;P1;durP1;ratioP1;P2;durP2;ratioP2
82409;SDS011;72049;51.766;6.846;2024-01-15T00:01:17;20.53;;;7.93;;
82409;SDS011;72049;51.766;6.846;2024-01-15T00:03:43;17.17;;;7.13;;
82409;SDS011;72049;51.766;6.846;2024-01-15T00:06:08;26.23;;;10.90;;
82409;SDS011;72049;51.766;6.846;2024-01-15T00:08:33;30.40;;;10.15;;
82409;SDS011;72049;51.766;6.846;2024-01-15T00:10:59;23.83;;;9.57;;
82409;SDS011;72049;51.766;6.846;2024-01-15T00:13:24;17.80;;;7.43;;
82409;SDS011;72049;51.766;6.846;2024-01-15T00:15:49;16.40;;;7.35;;
82409;SDS011;72049;51.766;6.846;2024-01-15T00:18:15;20.80;;;8.48;;
82409;SDS011;72049;51.766;6.846;2024-01-15T00:20:43;28.27;;;8.13;;
82409;SDS011;72049;51.766;6.846;2024-01-15T00:23:08;19.88;;;6.72;;
82409;SDS011;72049;51.766;6.846;2024-01-15T00:25:34;22.83;;;8.38;;
82409;SDS011;72049;51.766;6.846;2024-01-15T00:27:59;27.17;;;10.00;;
82409;SDS011;72049;51.766;6.846;2024-01-15T00:30:24;23.25;;;8.95;;
82409;SDS011;72049;51.766;6.846;2024-01-15T00:32:50;22.30;;;8.90;;
82409;SDS011;72049;51.766;6.846;2024-01-15T00:35:15;23.13;;;8.47;;
82409;SDS011;72049;51.766;6.846;2024-01-15T00:37:40;30.57;;;10.13;;
82409;SDS011;72049;51.766;6.846;2024-01-15T00:40:06;20.58;;;7.72;;
82409;SDS011;72049;51.766;6.846;2024-01-15T00:42:33;25.42;;;9.02;;
82409;SDS011;72049;51.766;6.846;2024-01-15T00:44:58;25.42;;;9.20;;
82409;SDS011;72049;51.766;6.846;2024-01-15T00:47:24;27.05;;;7.60;;
82409;SDS011;72049;51.766;6.846;2024-01-15T00:50:01;16.25;;;6.40;;
82409;SDS011;72049;51.766;6.846;2024-01-15T00:52:26;26.23;;;8.77;;
82409;SDS011;72049;51.766;6.846;2024-01-15T00:54:52;18.27;;;6.70;;
82409;SDS011;72049;51.766;6.846;2024-01-15T00:57:17;22.38;;;7.80;;
82409;SDS011;72049;51.766;6.846;2024-01-15T00:59:44;32.15;;;9.52;;
82409;SDS011;72049;51.766;6.846;2024-01-15T01:02:09;20.58;;;8.13;;
82409;SDS011;72049;51.766;6.846;2024-01-15T01:04:35;19.40;;;6.85;;
82409;SDS011;72049;51.766;6.846;2024-01-15T01:07:00;27.33;;;9.70;;
82409;SDS011;72049;51.766;6.846;2024-01-15T01:09:25;24.20;;;9.77;;
82409;SDS011;72049;51.766;6.846;2024-01-15T01:11:50;23.07;;;7.87;;
82409;SDS011;72049;51.766;6.846;2024-01-15T01:14:16;29.60;;;10.02;;
82409;SDS011;72049;51.766;6.846;2024-01-15T01:16:41;21.02;;;7.13;;
82409;SDS011;72049;51.766;6.846;2024-01-15T01:19:07;19.20;;;7.45;;
82409;SDS011;72049;51.766;6.846;2024-01-15T01:21:33;20.77;;;6.90;;
82409;SDS011;72049;51.766;6.846;2024-01-15T01:23:58;10.82;;;6.43;;
82409;SDS011;72049;51.766;6.846;2024-01-15T01:26:23;18.58;;;6.65;;
82409;SDS011;72049;51.766;6.846;2024-01-15T01:28:49;24.92;;;8.93;;
82409;SDS011;72049;51.766;6.846;2024-01-15T01:31:14;20.43;;;8.50;;
82409;SDS011;72049;51.766;6.846;2024-01-15T01:33:41;19.58;;;6.15;;
82409;SDS011;72049;51.766;6.846;2024-01-15T01:36:07;14.63;;;6.03;;
82409;SDS011;72049;51.766;6.846;2024-01-15T01:38:33;12.00;;;4.88;;
82409;SDS011;72049;51.766;6.846;2024-01-15T01:40:58;15.68;;;6.72;;
82409;SDS011;72049;51.766;6.846;2024-01-15T01:43:23;11.35;;;4.90;;
82409;SDS011;72049;51.766;6.846;2024-01-15T01:45:49;18.52;;;6.90;;
82409;SDS011;72049;51.766;6.846;2024-01-15T01:48:14;13.93;;;5.70;;
82409;SDS011;72049;51.766;6.846;2024-01-15T01:50:40;24.00;;;9.05;;
82409;SDS011;72049;51.766;6.846;2024-01-15T01:53:05;16.83;;;5.97;;
82409;SDS011;72049;51.766;6.846;2024-01-15T01:55:31;19.00;;;7.07;;
82409;SDS011;72049;51.766;6.846;2024-01-15T01:57:58;11.55;;;5.40;;
82409;SDS011;72049;51.766;6.846;2024-01-15T02:00:24;15.45;;;6.28;;
82409;SDS011;72049;51.766;6.846;2024-01-15T02:02:49;17.40;;;6.97;;
82409;SDS011;72049;51.766;6.846;2024-01-15T02:05:14;16.88;;;6.85;;
82409;SDS011;72049;51.766;6.846;2024-01-15T02:07:43;24.08;;;7.32;;
82409;SDS011;72049;51.766;6.846;2024-01-15T02:10:09;17.05;;;5.28;;
82409;SDS011;72049;51.766;6.846;2024-01-15T02:12:34;9.25;;;4.55;;
82409;SDS011;72049;51.766;6.846;2024-01-15T02:15:00;17.00;;;6.50;;
82409;SDS011;72049;51.766;6.846;2024-01-15T02:17:25;13.30;;;5.43;;
82409;SDS011;72049;51.766;6.846;2024-01-15T02:19:50;16.50;;;6.93;;
82409;SDS011;72049;51.766;6.846;2024-01-15T02:22:16;10.47;;;5.50;;
82409;SDS011;72049;51.766;6.846;2024-01-15T02:24:41;11.63;;;4.57;;
82409;SDS011;72049;51.766;6.846;2024-01-15T02:27:06;9.75;;;4.18;;
82409;SDS011;72049;51.766;6.846;2024-01-15T02:29:32;9.77;;;4.18;;
82409;SDS011;72049;51.766;6.846;2024-01-15T02:31:58;9.55;;;4.45;;
82409;SDS011;72049;51.766;6.846;2024-01-15T02:34:23;7.00;;;4.22;;
82409;SDS011;72049;51.766;6.846;2024-01-15T02:36:48;14.00;;;6.15;;
82409;SDS011;72049;51.766;6.846;2024-01-15T02:39:14;12.48;;;5.43;;
82409;SDS011;72049;51.766;6.846;2024-01-15T02:41:39;8.93;;;3.72;;
82409;SDS011;72049;51.766;6.846;2024-01-15T02:44:04;9.43;;;4.97;;
82409;SDS011;72049;51.766;6.846;2024-01-15T02:46:30;8.73;;;3.60;;
82409;SDS011;72049;51.766;6.846;2024-01-15T02:48:55;13.23;;;5.97;;
82409;SDS011;72049;51.766;6.846;2024-01-15T02:51:20;5.77;;;2.73;;
82409;SDS011;72049;51.766;6.846;2024-01-15T02:53:46;8.80;;;4.23;;
82409;SDS011;72049;51.766;6.846;2024-01-15T02:56:11;6.05;;;3.20;;
82409;SDS011;72049;51.766;6.846;2024-01-15T02:58:36;11.43;;;3.65;;
82409;SDS011;72049;51.766;6.846;2024-01-15T03:01:02;8.50;;;3.87;;
82409;SDS011;72049;51.766;6.846;2024-01-15T03:03:27;12.25;;;4.53;;
82409;SDS011;72049;51.766;6.846;2024-01-15T03:05:53;7.65;;;3.42;;
82409;SDS011;72049;51.766;6.846;2024-01-15T03:08:18;9.57;;;4.32;;
82409;SDS011;72049;51.766;6.846;2024-01-15T03:10:43;9.65;;;4.03;;
82409;SDS011;72049;51.766;6.846;2024-01-15T03:13:09;12.77;;;5.07;;
82409;SDS011;72049;51.766;6.846;2024-01-15T03:15:35;7.32;;;3.67;;
82409;SDS011;72049;51.766;6.846;2024-01-15T03:18:01;10.00;;;3.83;;
82409;SDS011;72049;51.766;6.846;2024-01-15T03:20:26;10.63;;;4.80;;
82409;SDS011;72049;51.766;6.846;2024-01-15T03:22:52;9.68;;;4.20;;
82409;SDS011;72049;51.766;6.846;2024-01-15T03:25:17;9.75;;;4.00;;
82409;SDS011;72049;51.766;6.846;2024-01-15T03:27:42;16.77;;;5.37;;
82409;SDS011;72049;51.766;6.846;2024-01-15T03:30:08;10.00;;;4.95;;
82409;SDS011;72049;51.766;6.846;2024-01-15T03:32:33;16.40;;;6.53;;
82409;SDS011;72049;51.766;6.846;2024-01-15T03:34:58;19.30;;;4.95;;
82409;SDS011;72049;51.766;6.846;2024-01-15T03:37:24;18.43;;;5.80;;
82409;SDS011;72049;51.766;6.846;2024-01-15T03:39:49;14.50;;;7.15;;
82409;SDS011;72049;51.766;6.846;2024-01-15T03:42:14;10.80;;;3.83;;
82409;SDS011;72049;51.766;6.846;2024-01-15T03:44:40;8.47;;;3.73;;
82409;SDS011;72049;51.766;6.846;2024-01-15T03:47:05;13.10;;;5.47;;
82409;SDS011;72049;51.766;6.846;2024-01-15T03:49:30;12.05;;;5.63;;
82409;SDS011;72049;51.766;6.846;2024-01-15T03:51:56;14.75;;;5.85;;
82409;SDS011;72049;51.766;6.846;2024-01-15T03:54:21;18.58;;;6.82;;
82409;SDS011;72049;51.766;6.846;2024-01-15T03:56:47;6.65;;;3.22;;
82409;SDS011;72049;51.766;6.846;2024-01-15T03:59:12;14.87;;;5.17;;
82409;SDS011;72049;51.766;6.846;2024-01-15T04:01:37;8.83;;;4.40;;
82409;SDS011;72049;51.766;6.846;2024-01-15T04:04:03;11.90;;;4.88;;
82409;SDS011;72049;51.766;6.846;2024-01-15T04:06:28;7.28;;;3.28;;
82409;SDS011;72049;51.766;6.846;2024-01-15T04:08:53;13.13;;;5.13;;
82409;SDS011;72049;51.766;6.846;2024-01-15T04:11:19;14.10;;;4.68;;
82409;SDS011;72049;51.766;6.846;2024-01-15T04:13:44;7.60;;;3.70;;
82409;SDS011;72049;51.766;6.846;2024-01-15T04:16:09;9.33;;;3.70;;
82409;SDS011;72049;51.766;6.846;2024-01-15T04:18:35;6.90;;;3.67;;
82409;SDS011;72049;51.766;6.846;2024-01-15T04:21:00;7.13;;;2.27;;
82409;SDS011;72049;51.766;6.846;2024-01-15T04:23:26;9.10;;;4.25;;
82409;SDS011;72049;51.766;6.846;2024-01-15T04:25:51;9.97;;;3.37;;
82409;SDS011;72049;51.766;6.846;2024-01-15T04:28:17;9.33;;;3.40;;
82409;SDS011;72049;51.766;6.846;2024-01-15T04:30:42;8.30;;;3.10;;
82409;SDS011;72049;51.766;6.846;2024-01-15T04:33:08;11.63;;;3.83;;
82409;SDS011;72049;51.766;6.846;2024-01-15T04:35:33;8.07;;;3.80;;
82409;SDS011;72049;51.766;6.846;2024-01-15T04:37:59;6.60;;;1.92;;
82409;SDS011;72049;51.766;6.846;2024-01-15T04:40:24;5.30;;;2.43;;
82409;SDS011;72049;51.766;6.846;2024-01-15T04:42:52;8.25;;;3.05;;
82409;SDS011;72049;51.766;6.846;2024-01-15T04:45:18;8.82;;;2.78;;
82409;SDS011;72049;51.766;6.846;2024-01-15T04:47:44;5.00;;;1.70;;
82409;SDS011;72049;51.766;6.846;2024-01-15T04:50:10;5.50;;;2.20;;
82409;SDS011;72049;51.766;6.846;2024-01-15T04:52:35;2.90;;;1.50;;
82409;SDS011;72049;51.766;6.846;2024-01-15T04:55:00;6.33;;;2.63;;
82409;SDS011;72049;51.766;6.846;2024-01-15T04:57:26;4.50;;;1.80;;
82409;SDS011;72049;51.766;6.846;2024-01-15T04:59:51;9.00;;;2.95;;
82409;SDS011;72049;51.766;6.846;2024-01-15T05:02:16;8.32;;;2.83;;
82409;SDS011;72049;51.766;6.846;2024-01-15T05:04:42;9.15;;;2.67;;
82409;SDS011;72049;51.766;6.846;2024-01-15T05:07:07;5.38;;;1.77;;
82409;SDS011;72049;51.766;6.846;2024-01-15T05:09:33;5.70;;;2.33;;
82409;SDS011;72049;51.766;6.846;2024-01-15T05:11:58;4.03;;;2.30;;
82409;SDS011;72049;51.766;6.846;2024-01-15T05:14:24;5.53;;;2.65;;
82409;SDS011;72049;51.766;6.846;2024-01-15T05:16:49;0.90;;;0.75;;
82409;SDS011;72049;51.766;6.846;2024-01-15T05:19:15;2.92;;;1.30;;
82409;SDS011;72049;51.766;6.846;2024-01-15T05:21:40;2.88;;;1.55;;
82409;SDS011;72049;51.766;6.846;2024-01-15T05:24:06;6.15;;;1.45;;
82409;SDS011;72049;51.766;6.846;2024-01-15T05:26:31;5.57;;;1.77;;
82409;SDS011;72049;51.766;6.846;2024-01-15T05:28:56;5.80;;;1.73;;
82409;SDS011;72049;51.766;6.846;2024-01-15T05:31:22;5.15;;;2.03;;
82409;SDS011;72049;51.766;6.846;2024-01-15T05:33:47;5.87;;;1.67;;
82409;SDS011;72049;51.766;6.846;2024-01-15T05:36:13;8.65;;;1.45;;
82409;SDS011;72049;51.766;6.846;2024-01-15T05:38:38;5.95;;;1.30;;
82409;SDS011;72049;51.766;6.846;2024-01-15T05:41:04;3.33;;;1.23;;
82409;SDS011;72049;51.766;6.846;2024-01-15T05:43:30;4.72;;;1.63;;
82409;SDS011;72049;51.766;6.846;2024-01-15T05:45:55;3.40;;;1.37;;
82409;SDS011;72049;51.766;6.846;2024-01-15T05:48:20;4.22;;;1.60;;
82409;SDS011;72049;51.766;6.846;2024-01-15T05:50:48;2.97;;;1.50;;
82409;SDS011;72049;51.766;6.846;2024-01-15T05:53:14;3.80;;;1.83;;
82409;SDS011;72049;51.766;6.846;2024-01-15T05:55:39;5.88;;;1.20;;
82409;SDS011;72049;51.766;6.846;2024-01-15T05:58:05;6.25;;;1.85;;
82409;SDS011;72049;51.766;6.846;2024-01-15T06:00:30;3.08;;;1.30;;
82409;SDS011;72049;51.766;6.846;2024-01-15T06:02:58;6.53;;;1.33;;
82409;SDS011;72049;51.766;6.846;2024-01-15T06:05:23;5.03;;;1.23;;
82409;SDS011;72049;51.766;6.846;2024-01-15T06:07:48;3.23;;;1.10;;
82409;SDS011;72049;51.766;6.846;2024-01-15T06:10:14;6.32;;;0.90;;
82409;SDS011;72049;51.766;6.846;2024-01-15T06:12:39;2.28;;;1.02;;
82409;SDS011;72049;51.766;6.846;2024-01-15T06:15:04;9.30;;;2.00;;
82409;SDS011;72049;51.766;6.846;2024-01-15T06:17:30;3.63;;;1.30;;
82409;SDS011;72049;51.766;6.846;2024-01-15T06:19:56;5.90;;;1.98;;
82409;SDS011;72049;51.766;6.846;2024-01-15T06:22:22;7.05;;;2.53;;
82409;SDS011;72049;51.766;6.846;2024-01-15T06:24:47;5.03;;;1.10;;
82409;SDS011;72049;51.766;6.846;2024-01-15T06:27:12;6.33;;;2.50;;
82409;SDS011;72049;51.766;6.846;2024-01-15T06:29:38;3.28;;;2.03;;
82409;SDS011;72049;51.766;6.846;2024-01-15T06:32:04;4.30;;;2.00;;
82409;SDS011;72049;51.766;6.846;2024-01-15T06:34:29;6.63;;;2.20;;
82409;SDS011;72049;51.766;6.846;2024-01-15T06:36:55;3.08;;;1.75;;
82409;SDS011;72049;51.766;6.846;2024-01-15T06:39:20;11.40;;;2.08;;
82409;SDS011;72049;51.766;6.846;2024-01-15T06:41:45;3.13;;;1.35;;
82409;SDS011;72049;51.766;6.846;2024-01-15T06:44:11;10.13;;;2.92;;
82409;SDS011;72049;51.766;6.846;2024-01-15T06:46:37;1.90;;;0.88;;
82409;SDS011;72049;51.766;6.846;2024-01-15T06:49:06;4.10;;;2.17;;
82409;SDS011;72049;51.766;6.846;2024-01-15T06:51:32;6.47;;;2.90;;
82409;SDS011;72049;51.766;6.846;2024-01-15T06:53:57;3.10;;;1.87;;
82409;SDS011;72049;51.766;6.846;2024-01-15T06:56:22;4.43;;;1.73;;
82409;SDS011;72049;51.766;6.846;2024-01-15T06:58:48;3.10;;;1.65;;
82409;SDS011;72049;51.766;6.846;2024-01-15T07:01:13;4.57;;;1.45;;
82409;SDS011;72049;51.766;6.846;2024-01-15T07:03:38;11.30;;;3.35;;
82409;SDS011;72049;51.766;6.846;2024-01-15T07:06:04;7.70;;;2.13;;
82409;SDS011;72049;51.766;6.846;2024-01-15T07:08:30;5.20;;;2.30;;
82409;SDS011;72049;51.766;6.846;2024-01-15T07:10:55;5.40;;;1.93;;
82409;SDS011;72049;51.766;6.846;2024-01-15T07:13:21;3.47;;;1.77;;
82409;SDS011;72049;51.766;6.846;2024-01-15T07:15:46;6.22;;;2.38;;
82409;SDS011;72049;51.766;6.846;2024-01-15T07:18:11;3.15;;;1.70;;
82409;SDS011;72049;51.766;6.846;2024-01-15T07:20:37;5.68;;;2.45;;
82409;SDS011;72049;51.766;6.846;2024-01-15T07:23:02;5.90;;;1.75;;
82409;SDS011;72049;51.766;6.846;2024-01-15T07:25:29;5.25;;;1.85;;
82409;SDS011;72049;51.766;6.846;2024-01-15T07:27:54;7.18;;;2.33;;
82409;SDS011;72049;51.766;6.846;2024-01-15T07:30:20;2.60;;;1.33;;
82409;SDS011;72049;51.766;6.846;2024-01-15T07:32:47;6.55;;;1.92;;
82409;SDS011;72049;51.766;6.846;2024-01-15T07:35:12;6.82;;;2.72;;
82409;SDS011;72049;51.766;6.846;2024-01-15T07:37:37;7.70;;;2.70;;
82409;SDS011;72049;51.766;6.846;2024-01-15T07:40:03;3.40;;;2.53;;
82409;SDS011;72049;51.766;6.846;2024-01-15T07:42:29;5.40;;;2.47;;
82409;SDS011;72049;51.766;6.846;2024-01-15T07:44:55;3.83;;;1.60;;
82409;SDS011;72049;51.766;6.846;2024-01-15T07:47:20;5.57;;;2.58;;
82409;SDS011;72049;51.766;6.846;2024-01-15T07:49:45;3.17;;;1.45;;
82409;SDS011;72049;51.766;6.846;2024-01-15T07:52:11;5.43;;;2.58;;
82409;SDS011;72049;51.766;6.846;2024-01-15T07:54:38;5.22;;;2.40;;
82409;SDS011;72049;51.766;6.846;2024-01-15T07:57:03;7.37;;;2.13;;
82409;SDS011;72049;51.766;6.846;2024-01-15T07:59:28;4.30;;;1.90;;
82409;SDS011;72049;51.766;6.846;2024-01-15T08:01:54;3.97;;;1.83;;
82409;SDS011;72049;51.766;6.846;2024-01-15T08:04:20;5.80;;;2.17;;
82409;SDS011;72049;51.766;6.846;2024-01-15T08:06:45;3.78;;;1.63;;
82409;SDS011;72049;51.766;6.846;2024-01-15T08:09:11;7.60;;;3.13;;
82409;SDS011;72049;51.766;6.846;2024-01-15T08:11:40;3.08;;;2.00;;
82409;SDS011;72049;51.766;6.846;2024-01-15T08:14:09;5.30;;;2.28;;
82409;SDS011;72049;51.766;6.846;2024-01-15T08:16:35;4.00;;;2.30;;
82409;SDS011;72049;51.766;6.846;2024-01-15T08:19:00;6.05;;;2.58;;
82409;SDS011;72049;51.766;6.846;2024-01-15T08:21:25;4.57;;;2.60;;
82409;SDS011;72049;51.766;6.846;2024-01-15T08:23:53;4.55;;;2.13;;
82409;SDS011;72049;51.766;6.846;2024-01-15T08:26:18;5.47;;;2.27;;
82409;SDS011;72049;51.766;6.846;2024-01-15T08:28:44;4.13;;;2.10;;
82409;SDS011;72049;51.766;6.846;2024-01-15T08:31:09;5.75;;;3.30;;
82409;SDS011;72049;51.766;6.846;2024-01-15T08:33:35;5.50;;;2.33;;
82409;SDS011;72049;51.766;6.846;2024-01-15T08:36:01;4.72;;;2.58;;
82409;SDS011;72049;51.766;6.846;2024-01-15T08:38:27;5.07;;;2.13;;
82409;SDS011;72049;51.766;6.846;2024-01-15T08:40:52;4.85;;;2.30;;
82409;SDS011;72049;51.766;6.846;2024-01-15T08:43:18;3.95;;;2.42;;
82409;SDS011;72049;51.766;6.846;2024-01-15T08:45:44;5.05;;;2.00;;
82409;SDS011;72049;51.766;6.846;2024-01-15T08:48:10;4.28;;;1.88;;
82409;SDS011;72049;51.766;6.846;2024-01-15T08:50:35;3.60;;;1.57;;
82409;SDS011;72049;51.766;6.846;2024-01-15T08:53:00;3.40;;;1.67;;
82409;SDS011;72049;51.766;6.846;2024-01-15T08:55:26;5.82;;;2.42;;
82409;SDS011;72049;51.766;6.846;2024-01-15T08:57:51;3.67;;;1.13;;
82409;SDS011;72049;51.766;6.846;2024-01-15T09:00:17;2.23;;;1.00;;
82409;SDS011;72049;51.766;6.846;2024-01-15T09:02:42;3.45;;;1.75;;
82409;SDS011;72049;51.766;6.846;2024-01-15T09:05:08;3.75;;;1.63;;
82409;SDS011;72049;51.766;6.846;2024-01-15T09:07:33;4.80;;;1.98;;
82409;SDS011;72049;51.766;6.846;2024-01-15T09:09:58;3.22;;;1.35;;
82409;SDS011;72049;51.766;6.846;2024-01-15T09:12:25;2.70;;;1.40;;
82409;SDS011;72049;51.766;6.846;2024-01-15T09:14:50;1.73;;;1.05;;
82409;SDS011;72049;51.766;6.846;2024-01-15T09:17:15;1.93;;;1.23;;
82409;SDS011;72049;51.766;6.846;2024-01-15T09:19:41;2.20;;;1.55;;
82409;SDS011;72049;51.766;6.846;2024-01-15T09:22:07;1.45;;;0.73;;
82409;SDS011;72049;51.766;6.846;2024-01-15T09:24:32;3.15;;;1.15;;
82409;SDS011;72049;51.766;6.846;2024-01-15T09:26:57;3.30;;;1.63;;
82409;SDS011;72049;51.766;6.846;2024-01-15T09:29:23;2.92;;;1.65;;
82409;SDS011;72049;51.766;6.846;2024-01-15T09:31:49;2.97;;;1.15;;
82409;SDS011;72049;51.766;6.846;2024-01-15T09:34:15;2.03;;;0.68;;
82409;SDS011;72049;51.766;6.846;2024-01-15T09:36:40;3.47;;;1.30;;
82409;SDS011;72049;51.766;6.846;2024-01-15T09:39:07;3.03;;;1.10;;
82409;SDS011;72049;51.766;6.846;2024-01-15T09:41:36;1.63;;;0.73;;
82409;SDS011;72049;51.766;6.846;2024-01-15T09:44:02;3.42;;;1.15;;
82409;SDS011;72049;51.766;6.846;2024-01-15T09:46:28;2.05;;;1.05;;
82409;SDS011;72049;51.766;6.846;2024-01-15T09:48:53;3.90;;;1.75;;
82409;SDS011;72049;51.766;6.846;2024-01-15T09:51:19;2.85;;;1.48;;
82409;SDS011;72049;51.766;6.846;2024-01-15T09:53:45;0.77;;;0.63;;
82409;SDS011;72049;51.766;6.846;2024-01-15T09:56:11;4.20;;;1.80;;
82409;SDS011;72049;51.766;6.846;2024-01-15T09:58:37;4.80;;;1.20;;
82409;SDS011;72049;51.766;6.846;2024-01-15T10:01:03;2.00;;;1.27;;
82409;SDS011;72049;51.766;6.846;2024-01-15T10:03:28;5.55;;;2.10;;
82409;SDS011;72049;51.766;6.846;2024-01-15T10:05:54;3.58;;;1.30;;
82409;SDS011;72049;51.766;6.846;2024-01-15T10:08:19;1.42;;;0.98;;
82409;SDS011;72049;51.766;6.846;2024-01-15T10:10:45;2.13;;;0.93;;
82409;SDS011;72049;51.766;6.846;2024-01-15T10:13:10;2.13;;;1.65;;
82409;SDS011;72049;51.766;6.846;2024-01-15T10:15:37;3.30;;;1.30;;
82409;SDS011;72049;51.766;6.846;2024-01-15T10:18:03;3.08;;;1.65;;
82409;SDS011;72049;51.766;6.846;2024-01-15T10:20:28;4.35;;;1.73;;
82409;SDS011;72049;51.766;6.846;2024-01-15T10:22:54;2.53;;;1.50;;
82409;SDS011;72049;51.766;6.846;2024-01-15T10:25:20;2.30;;;1.48;;
82409;SDS011;72049;51.766;6.846;2024-01-15T10:28:00;9.98;;;2.05;;
82409;SDS011;72049;51.766;6.846;2024-01-15T10:30:26;5.70;;;2.75;;
82409;SDS011;72049;51.766;6.846;2024-01-15T10:33:01;3.50;;;1.55;;
82409;SDS011;72049;51.766;6.846;2024-01-15T10:35:27;3.95;;;1.90;;
82409;SDS011;72049;51.766;6.846;2024-01-15T10:37:53;2.80;;;1.50;;
82409;SDS011;72049;51.766;6.846;2024-01-15T10:40:18;4.38;;;1.60;;
82409;SDS011;72049;51.766;6.846;2024-01-15T10:42:44;6.43;;;2.05;;
82409;SDS011;72049;51.766;6.846;2024-01-15T10:45:09;6.43;;;2.42;;
82409;SDS011;72049;51.766;6.846;2024-01-15T10:47:35;5.40;;;2.35;;
82409;SDS011;72049;51.766;6.846;2024-01-15T10:50:00;3.63;;;1.83;;
82409;SDS011;72049;51.766;6.846;2024-01-15T10:52:27;5.38;;;1.80;;
82409;SDS011;72049;51.766;6.846;2024-01-15T10:54:52;3.88;;;1.83;;
82409;SDS011;72049;51.766;6.846;2024-01-15T10:57:18;5.70;;;2.05;;
82409;SDS011;72049;51.766;6.846;2024-01-15T10:59:44;5.82;;;2.40;;
82409;SDS011;72049;51.766;6.846;2024-01-15T11:02:10;4.30;;;1.92;;
82409;SDS011;72049;51.766;6.846;2024-01-15T11:04:35;4.95;;;2.20;;
82409;SDS011;72049;51.766;6.846;2024-01-15T11:07:01;1.58;;;0.80;;
82409;SDS011;72049;51.766;6.846;2024-01-15T11:09:28;4.25;;;1.42;;
82409;SDS011;72049;51.766;6.846;2024-01-15T11:12:08;5.07;;;1.65;;
82409;SDS011;72049;51.766;6.846;2024-01-15T11:17:07;2.15;;;1.10;;
82409;SDS011;72049;51.766;6.846;2024-01-15T11:19:36;2.58;;;0.85;;
82409;SDS011;72049;51.766;6.846;2024-01-15T11:22:02;1.63;;;1.00;;
82409;SDS011;72049;51.766;6.846;2024-01-15T11:24:35;2.47;;;0.85;;
82409;SDS011;72049;51.766;6.846;2024-01-15T11:27:04;5.97;;;1.42;;
82409;SDS011;72049;51.766;6.846;2024-01-15T11:29:31;2.50;;;0.80;;
82409;SDS011;72049;51.766;6.846;2024-01-15T11:34:49;2.95;;;0.90;;
82409;SDS011;72049;51.766;6.846;2024-01-15T11:37:08;1.23;;;0.40;;
82409;SDS011;72049;51.766;6.846;2024-01-15T11:42:02;3.20;;;1.20;;
82409;SDS011;72049;51.766;6.846;2024-01-15T11:44:28;2.55;;;1.40;;
82409;SDS011;72049;51.766;6.846;2024-01-15T11:46:57;2.78;;;0.82;;
82409;SDS011;72049;51.766;6.846;2024-01-15T11:49:31;4.60;;;1.23;;
82409;SDS011;72049;51.766;6.846;2024-01-15T11:52:02;2.78;;;1.05;;
82409;SDS011;72049;51.766;6.846;2024-01-15T11:54:30;4.13;;;1.52;;
82409;SDS011;72049;51.766;6.846;2024-01-15T11:56:59;3.97;;;1.90;;
82409;SDS011;72049;51.766;6.846;2024-01-15T11:59:25;5.82;;;1.67;;
82409;SDS011;72049;51.766;6.846;2024-01-15T12:01:50;3.37;;;2.03;;
82409;SDS011;72049;51.766;6.846;2024-01-15T12:04:16;3.75;;;1.75;;
82409;SDS011;72049;51.766;6.846;2024-01-15T12:06:44;5.13;;;1.50;;
82409;SDS011;72049;51.766;6.846;2024-01-15T12:09:10;3.90;;;1.65;;
82409;SDS011;72049;51.766;6.846;2024-01-15T12:11:35;5.00;;;2.00;;
82409;SDS011;72049;51.766;6.846;2024-01-15T12:14:01;4.72;;;2.50;;
82409;SDS011;72049;51.766;6.846;2024-01-15T12:16:27;2.08;;;1.20;;
82409;SDS011;72049;51.766;6.846;2024-01-15T12:18:55;3.05;;;1.80;;
82409;SDS011;72049;51.766;6.846;2024-01-15T12:21:21;5.93;;;1.50;;
82409;SDS011;72049;51.766;6.846;2024-01-15T12:23:46;5.43;;;2.30;;
82409;SDS011;72049;51.766;6.846;2024-01-15T12:26:13;4.30;;;2.45;;
82409;SDS011;72049;51.766;6.846;2024-01-15T12:28:41;1.60;;;1.20;;
82409;SDS011;72049;51.766;6.846;2024-01-15T12:31:07;4.50;;;1.80;;
82409;SDS011;72049;51.766;6.846;2024-01-15T12:33:33;5.23;;;1.73;;
82409;SDS011;72049;51.766;6.846;2024-01-15T12:35:58;6.68;;;2.58;;
82409;SDS011;72049;51.766;6.846;2024-01-15T12:38:23;4.38;;;2.10;;
82409;SDS011;72049;51.766;6.846;2024-01-15T12:40:49;2.27;;;1.30;;
82409;SDS011;72049;51.766;6.846;2024-01-15T12:43:14;3.50;;;1.67;;
82409;SDS011;72049;51.766;6.846;2024-01-15T12:45:40;5.28;;;2.10;;
82409;SDS011;72049;51.766;6.846;2024-01-15T12:48:05;3.13;;;1.75;;
82409;SDS011;72049;51.766;6.846;2024-01-15T12:50:31;3.65;;;1.20;;
82409;SDS011;72049;51.766;6.846;2024-01-15T12:52:58;5.07;;;1.63;;
82409;SDS011;72049;51.766;6.846;2024-01-15T12:55:24;3.17;;;1.10;;
82409;SDS011;72049;51.766;6.846;2024-01-15T12:57:50;4.63;;;1.77;;
82409;SDS011;72049;51.766;6.846;2024-01-15T13:00:19;4.05;;;1.40;;
82409;SDS011;72049;51.766;6.846;2024-01-15T13:02:44;2.22;;;1.23;;
82409;SDS011;72049;51.766;6.846;2024-01-15T13:05:10;2.47;;;0.85;;
82409;SDS011;72049;51.766;6.846;2024-01-15T13:07:38;2.95;;;1.10;;
82409;SDS011;72049;51.766;6.846;2024-01-15T13:10:04;2.97;;;0.90;;
82409;SDS011;72049;51.766;6.846;2024-01-15T13:12:30;2.28;;;1.05;;
82409;SDS011;72049;51.766;6.846;2024-01-15T13:14:55;1.65;;;0.77;;
82409;SDS011;72049;51.766;6.846;2024-01-15T13:17:21;3.42;;;1.00;;
82409;SDS011;72049;51.766;6.846;2024-01-15T13:19:47;8.45;;;1.60;;
82409;SDS011;72049;51.766;6.846;2024-01-15T13:22:12;3.15;;;1.00;;
82409;SDS011;72049;51.766;6.846;2024-01-15T13:24:39;2.22;;;1.02;;
82409;SDS011;72049;51.766;6.846;2024-01-15T13:27:04;1.40;;;0.70;;
82409;SDS011;72049;51.766;6.846;2024-01-15T13:29:30;2.85;;;0.55;;
82409;SDS011;72049;51.766;6.846;2024-01-15T13:31:56;3.05;;;0.90;;
82409;SDS011;72049;51.766;6.846;2024-01-15T13:34:21;1.42;;;0.57;;
82409;SDS011;72049;51.766;6.846;2024-01-15T13:36:47;1.17;;;0.50;;
82409;SDS011;72049;51.766;6.846;2024-01-15T13:39:12;3.83;;;0.95;;
82409;SDS011;72049;51.766;6.846;2024-01-15T13:41:38;2.85;;;1.10;;
82409;SDS011;72049;51.766;6.846;2024-01-15T13:44:03;2.85;;;0.90;;
82409;SDS011;72049;51.766;6.846;2024-01-15T13:46:29;0.85;;;0.52;;
82409;SDS011;72049;51.766;6.846;2024-01-15T13:48:54;3.15;;;0.93;;
82409;SDS011;72049;51.766;6.846;2024-01-15T13:51:23;1.55;;;0.57;;
82409;SDS011;72049;51.766;6.846;2024-01-15T13:53:48;4.43;;;1.23;;
82409;SDS011;72049;51.766;6.846;2024-01-15T13:56:15;2.70;;;0.90;;
82409;SDS011;72049;51.766;6.846;2024-01-15T13:58:40;1.67;;;0.80;;
82409;SDS011;72049;51.766;6.846;2024-01-15T14:01:05;1.80;;;0.90;;
82409;SDS011;72049;51.766;6.846;2024-01-15T14:03:31;2.17;;;0.90;;
82409;SDS011;72049;51.766;6.846;2024-01-15T14:05:56;1.80;;;0.30;;
82409;SDS011;72049;51.766;6.846;2024-01-15T14:08:22;0.80;;;0.47;;
82409;SDS011;72049;51.766;6.846;2024-01-15T14:10:47;1.43;;;0.50;;
82409;SDS011;72049;51.766;6.846;2024-01-15T14:13:12;1.92;;;0.82;;
82409;SDS011;72049;51.766;6.846;2024-01-15T14:15:38;1.03;;;0.67;;
82409;SDS011;72049;51.766;6.846;2024-01-15T14:18:04;1.40;;;0.47;;
82409;SDS011;72049;51.766;6.846;2024-01-15T14:20:29;1.27;;;0.40;;
82409;SDS011;72049;51.766;6.846;2024-01-15T14:22:54;3.10;;;0.52;;
82409;SDS011;72049;51.766;6.846;2024-01-15T14:25:20;3.03;;;0.88;;
82409;SDS011;72049;51.766;6.846;2024-01-15T14:27:46;1.08;;;0.52;;
82409;SDS011;72049;51.766;6.846;2024-01-15T14:30:11;2.10;;;0.93;;
82409;SDS011;72049;51.766;6.846;2024-01-15T14:32:38;1.88;;;0.80;;
82409;SDS011;72049;51.766;6.846;2024-01-15T14:35:04;1.42;;;0.52;;
82409;SDS011;72049;51.766;6.846;2024-01-15T14:37:30;4.53;;;0.68;;
82409;SDS011;72049;51.766;6.846;2024-01-15T14:39:56;1.85;;;0.65;;
82409;SDS011;72049;51.766;6.846;2024-01-15T14:42:21;1.20;;;0.70;;
82409;SDS011;72049;51.766;6.846;2024-01-15T14:44:47;1.70;;;0.82;;